sensor_id;sensor_type;location;lat;lon;timestamp;temperature;humidity
2973;DHT22;1496;51.404;7.232;2022-12-18T00:02:15;-1.40;95.50
2973;DHT22;1496;51.404;7.232;2022-12-18T00:04:41;-1.40;97.90
2973;DHT22;1496;51.404;7.232;2022-12-18T00:07:07;-1.40;80.40
2973;DHT22;1496;51.404;7.232;2022-12-18T00:09:33;-1.40;75.80
2973;DHT22;1496;51.404;7.232;2022-12-18T00:11:58;-1.30;78.10
2973;DHT22;1496;51.404;7.232;2022-12-18T00:14:24;-1.30;77.90
2973;DHT22;1496;51.404;7.232;2022-12-18T00:16:49;-1.40;82.70
2973;DHT22;1496;51.404;7.232;2022-12-18T00:19:15;-1.30;82.00
2973;DHT22;1496;51.404;7.232;2022-12-18T00:21:42;-1.30;81.70
2973;DHT22;1496;51.404;7.232;2022-12-18T00:24:09;-1.30;92.80
2973;DHT22;1496;51.404;7.232;2022-12-18T00:26:36;-1.40;90.40
2973;DHT22;1496;51.404;7.232;2022-12-18T00:29:12;-1.40;93.10
2973;DHT22;1496;51.404;7.232;2022-12-18T00:31:42;-1.40;91.90
2973;DHT22;1496;51.404;7.232;2022-12-18T00:34:10;-1.40;92.10
2973;DHT22;1496;51.404;7.232;2022-12-18T00:36:39;-1.50;90.40
2973;DHT22;1496;51.404;7.232;2022-12-18T00:39:06;-1.40;96.90
2973;DHT22;1496;51.404;7.232;2022-12-18T00:41:32;-1.50;96.20
2973;DHT22;1496;51.404;7.232;2022-12-18T00:44:17;-1.50;95.90
2973;DHT22;1496;51.404;7.232;2022-12-18T00:46:45;-1.50;94.00
2973;DHT22;1496;51.404;7.232;2022-12-18T00:49:11;-1.50;93.60
2973;DHT22;1496;51.404;7.232;2022-12-18T00:51:36;-1.50;92.90
2973;DHT22;1496;51.404;7.232;2022-12-18T00:54:02;-1.50;94.40
2973;DHT22;1496;51.404;7.232;2022-12-18T00:56:28;-1.50;97.10
2973;DHT22;1496;51.404;7.232;2022-12-18T00:58:53;-1.50;95.70
2973;DHT22;1496;51.404;7.232;2022-12-18T01:01:19;-1.50;99.90
2973;DHT22;1496;51.404;7.232;2022-12-18T01:03:45;-1.40;64.70
2973;DHT22;1496;51.404;7.232;2022-12-18T01:06:16;-1.50;65.20
2973;DHT22;1496;51.404;7.232;2022-12-18T01:08:42;-1.50;66.10
2973;DHT22;1496;51.404;7.232;2022-12-18T01:11:15;-1.50;64.90
2973;DHT22;1496;51.404;7.232;2022-12-18T01:13:41;-1.50;66.90
2973;DHT22;1496;51.404;7.232;2022-12-18T01:16:07;-1.50;65.90
2973;DHT22;1496;51.404;7.232;2022-12-18T01:18:34;-1.50;66.20
2973;DHT22;1496;51.404;7.232;2022-12-18T01:21:00;-1.50;66.70
2973;DHT22;1496;51.404;7.232;2022-12-18T01:23:25;-1.50;66.60
2973;DHT22;1496;51.404;7.232;2022-12-18T01:25:51;-1.50;66.80
2973;DHT22;1496;51.404;7.232;2022-12-18T01:28:17;-1.50;67.50
2973;DHT22;1496;51.404;7.232;2022-12-18T01:30:42;-1.30;68.30
2973;DHT22;1496;51.404;7.232;2022-12-18T01:33:08;-1.50;66.60
2973;DHT22;1496;51.404;7.232;2022-12-18T01:35:43;-1.40;67.20
2973;DHT22;1496;51.404;7.232;2022-12-18T01:38:09;-1.50;67.60
2973;DHT22;1496;51.404;7.232;2022-12-18T01:40:34;-1.40;67.80
2973;DHT22;1496;51.404;7.232;2022-12-18T01:43:00;-1.40;67.50
2973;DHT22;1496;51.404;7.232;2022-12-18T01:45:31;-1.30;67.70
2973;DHT22;1496;51.404;7.232;2022-12-18T01:48:06;-1.30;67.60
2973;DHT22;1496;51.404;7.232;2022-12-18T01:50:36;-1.40;67.30
2973;DHT22;1496;51.404;7.232;2022-12-18T01:53:15;-1.40;67.30
2973;DHT22;1496;51.404;7.232;2022-12-18T01:55:53;-1.40;68.50
2973;DHT22;1496;51.404;7.232;2022-12-18T01:58:23;-1.40;67.00
2973;DHT22;1496;51.404;7.232;2022-12-18T02:00:51;-1.60;67.20
2973;DHT22;1496;51.404;7.232;2022-12-18T02:03:18;-1.60;68.40
2973;DHT22;1496;51.404;7.232;2022-12-18T02:06:27;-1.60;69.60
2973;DHT22;1496;51.404;7.232;2022-12-18T02:09:29;-1.50;70.70
2973;DHT22;1496;51.404;7.232;2022-12-18T02:14:53;-1.60;69.80
2973;DHT22;1496;51.404;7.232;2022-12-18T02:17:22;-1.60;70.80
2973;DHT22;1496;51.404;7.232;2022-12-18T02:20:28;-1.60;70.70
2973;DHT22;1496;51.404;7.232;2022-12-18T02:28:27;-1.70;72.10
2973;DHT22;1496;51.404;7.232;2022-12-18T02:30:59;-1.70;71.80
2973;DHT22;1496;51.404;7.232;2022-12-18T02:33:28;-1.70;71.50
2973;DHT22;1496;51.404;7.232;2022-12-18T02:35:57;-1.70;71.50
2973;DHT22;1496;51.404;7.232;2022-12-18T02:38:25;-1.60;72.20
2973;DHT22;1496;51.404;7.232;2022-12-18T02:40:52;-1.50;72.10
2973;DHT22;1496;51.404;7.232;2022-12-18T02:43:19;-1.50;72.80
2973;DHT22;1496;51.404;7.232;2022-12-18T02:45:53;-1.40;72.70
2973;DHT22;1496;51.404;7.232;2022-12-18T02:48:31;-1.50;71.90
2973;DHT22;1496;51.404;7.232;2022-12-18T02:51:19;-1.50;72.50
2973;DHT22;1496;51.404;7.232;2022-12-18T02:53:58;-1.50;73.00
2973;DHT22;1496;51.404;7.232;2022-12-18T02:56:54;-1.50;72.40
2973;DHT22;1496;51.404;7.232;2022-12-18T02:59:47;-1.50;72.10
2973;DHT22;1496;51.404;7.232;2022-12-18T03:02:33;-1.50;73.00
2973;DHT22;1496;51.404;7.232;2022-12-18T03:07:37;-1.40;72.70
2973;DHT22;1496;51.404;7.232;2022-12-18T03:10:09;-1.30;72.00
2973;DHT22;1496;51.404;7.232;2022-12-18T03:12:42;-1.40;71.60
2973;DHT22;1496;51.404;7.232;2022-12-18T03:15:20;-1.30;71.00
2973;DHT22;1496;51.404;7.232;2022-12-18T03:17:59;-1.20;70.90
2973;DHT22;1496;51.404;7.232;2022-12-18T03:20:31;-1.30;71.80
2973;DHT22;1496;51.404;7.232;2022-12-18T03:23:07;-1.30;70.10
2973;DHT22;1496;51.404;7.232;2022-12-18T03:25:37;-1.30;71.20
2973;DHT22;1496;51.404;7.232;2022-12-18T03:28:06;-1.30;69.70
2973;DHT22;1496;51.404;7.232;2022-12-18T03:30:37;-1.30;70.30
2973;DHT22;1496;51.404;7.232;2022-12-18T03:33:41;-1.30;70.20
2973;DHT22;1496;51.404;7.232;2022-12-18T03:36:07;-1.20;69.70
2973;DHT22;1496;51.404;7.232;2022-12-18T03:38:33;-1.20;69.20
2973;DHT22;1496;51.404;7.232;2022-12-18T03:41:33;-1.10;69.00
2973;DHT22;1496;51.404;7.232;2022-12-18T03:44:47;-1.10;69.70
2973;DHT22;1496;51.404;7.232;2022-12-18T03:47:29;-1.10;69.80
2973;DHT22;1496;51.404;7.232;2022-12-18T03:50:19;-1.10;67.80
2973;DHT22;1496;51.404;7.232;2022-12-18T03:55:25;-1.10;67.10
2973;DHT22;1496;51.404;7.232;2022-12-18T03:57:58;-1.10;69.40
2973;DHT22;1496;51.404;7.232;2022-12-18T04:00:29;-1.00;66.80
2973;DHT22;1496;51.404;7.232;2022-12-18T04:03:04;-1.10;67.10
2973;DHT22;1496;51.404;7.232;2022-12-18T04:05:38;-1.10;68.20
2973;DHT22;1496;51.404;7.232;2022-12-18T04:08:06;-1.10;66.80
2973;DHT22;1496;51.404;7.232;2022-12-18T04:10:35;-1.10;66.50
2973;DHT22;1496;51.404;7.232;2022-12-18T04:13:01;-1.10;66.20
2973;DHT22;1496;51.404;7.232;2022-12-18T04:15:28;-1.10;66.30
2973;DHT22;1496;51.404;7.232;2022-12-18T04:17:55;-1.10;65.70
2973;DHT22;1496;51.404;7.232;2022-12-18T04:20:23;-1.10;67.00
2973;DHT22;1496;51.404;7.232;2022-12-18T04:22:49;-1.10;65.80
2973;DHT22;1496;51.404;7.232;2022-12-18T04:25:17;-1.10;65.20
2973;DHT22;1496;51.404;7.232;2022-12-18T04:27:54;-1.00;66.00
2973;DHT22;1496;51.404;7.232;2022-12-18T04:30:20;-1.00;66.50
2973;DHT22;1496;51.404;7.232;2022-12-18T04:32:46;-1.10;64.40
2973;DHT22;1496;51.404;7.232;2022-12-18T04:35:11;-1.10;62.00
2973;DHT22;1496;51.404;7.232;2022-12-18T04:37:38;-1.10;62.70
2973;DHT22;1496;51.404;7.232;2022-12-18T04:40:05;-1.10;62.90
2973;DHT22;1496;51.404;7.232;2022-12-18T04:42:39;-1.10;62.80
2973;DHT22;1496;51.404;7.232;2022-12-18T04:45:06;-1.00;62.10
2973;DHT22;1496;51.404;7.232;2022-12-18T04:47:32;-1.00;62.60
2973;DHT22;1496;51.404;7.232;2022-12-18T04:49:58;-1.10;62.80
2973;DHT22;1496;51.404;7.232;2022-12-18T04:52:24;-1.00;63.50
2973;DHT22;1496;51.404;7.232;2022-12-18T04:54:50;-1.00;63.00
2973;DHT22;1496;51.404;7.232;2022-12-18T04:57:15;-0.90;61.60
2973;DHT22;1496;51.404;7.232;2022-12-18T04:59:43;-1.00;60.70
2973;DHT22;1496;51.404;7.232;2022-12-18T05:02:09;-1.00;60.30
2973;DHT22;1496;51.404;7.232;2022-12-18T05:04:34;-1.00;60.30
2973;DHT22;1496;51.404;7.232;2022-12-18T05:07:00;-1.00;59.80
2973;DHT22;1496;51.404;7.232;2022-12-18T05:09:26;-1.10;59.20
2973;DHT22;1496;51.404;7.232;2022-12-18T05:11:51;-1.10;59.00
2973;DHT22;1496;51.404;7.232;2022-12-18T05:14:17;-1.20;58.40
2973;DHT22;1496;51.404;7.232;2022-12-18T05:16:42;-1.30;58.90
2973;DHT22;1496;51.404;7.232;2022-12-18T05:19:08;-1.30;57.50
2973;DHT22;1496;51.404;7.232;2022-12-18T05:21:34;-1.20;57.90
2973;DHT22;1496;51.404;7.232;2022-12-18T05:23:59;-1.30;56.80
2973;DHT22;1496;51.404;7.232;2022-12-18T05:26:25;-1.30;56.90
2973;DHT22;1496;51.404;7.232;2022-12-18T05:28:51;-1.30;57.70
2973;DHT22;1496;51.404;7.232;2022-12-18T05:31:16;-1.30;60.00
2973;DHT22;1496;51.404;7.232;2022-12-18T05:33:42;-1.30;69.00
2973;DHT22;1496;51.404;7.232;2022-12-18T05:36:08;-1.30;55.60
2973;DHT22;1496;51.404;7.232;2022-12-18T05:38:36;-1.30;56.10
2973;DHT22;1496;51.404;7.232;2022-12-18T05:41:03;-1.30;76.30
2973;DHT22;1496;51.404;7.232;2022-12-18T05:43:28;-1.30;58.40
2973;DHT22;1496;51.404;7.232;2022-12-18T05:45:54;-1.30;69.80
2973;DHT22;1496;51.404;7.232;2022-12-18T05:48:21;-1.40;61.10
2973;DHT22;1496;51.404;7.232;2022-12-18T05:50:48;-1.30;64.50
2973;DHT22;1496;51.404;7.232;2022-12-18T05:53:15;-1.10;59.10
2973;DHT22;1496;51.404;7.232;2022-12-18T05:55:43;-1.20;59.00
2973;DHT22;1496;51.404;7.232;2022-12-18T05:58:10;-1.20;61.90
2973;DHT22;1496;51.404;7.232;2022-12-18T06:00:38;-1.20;57.80
2973;DHT22;1496;51.404;7.232;2022-12-18T06:03:08;-1.20;59.00
2973;DHT22;1496;51.404;7.232;2022-12-18T06:05:39;-1.00;58.30
2973;DHT22;1496;51.404;7.232;2022-12-18T06:08:05;-1.10;56.00
2973;DHT22;1496;51.404;7.232;2022-12-18T06:10:32;-1.20;54.30
2973;DHT22;1496;51.404;7.232;2022-12-18T06:12:57;-1.20;54.30
2973;DHT22;1496;51.404;7.232;2022-12-18T06:15:23;-1.10;55.10
2973;DHT22;1496;51.404;7.232;2022-12-18T06:17:49;-1.20;58.30
2973;DHT22;1496;51.404;7.232;2022-12-18T06:20:16;-1.10;53.70
2973;DHT22;1496;51.404;7.232;2022-12-18T06:22:41;-1.20;56.80
2973;DHT22;1496;51.404;7.232;2022-12-18T06:25:07;-1.20;54.80
2973;DHT22;1496;51.404;7.232;2022-12-18T06:27:33;-1.20;84.80
2973;DHT22;1496;51.404;7.232;2022-12-18T06:29:59;-1.10;58.00
2973;DHT22;1496;51.404;7.232;2022-12-18T06:32:25;-1.20;46.80
2973;DHT22;1496;51.404;7.232;2022-12-18T06:34:51;-1.10;52.70
2973;DHT22;1496;51.404;7.232;2022-12-18T06:37:17;-1.10;68.20
2973;DHT22;1496;51.404;7.232;2022-12-18T06:39:43;-1.10;50.70
2973;DHT22;1496;51.404;7.232;2022-12-18T06:42:08;-1.10;49.70
2973;DHT22;1496;51.404;7.232;2022-12-18T06:44:34;-1.10;44.90
2973;DHT22;1496;51.404;7.232;2022-12-18T06:47:00;-1.10;44.20
2973;DHT22;1496;51.404;7.232;2022-12-18T06:49:25;-1.00;44.50
2973;DHT22;1496;51.404;7.232;2022-12-18T06:51:51;-1.00;43.60
2973;DHT22;1496;51.404;7.232;2022-12-18T06:54:20;-1.00;43.90
2973;DHT22;1496;51.404;7.232;2022-12-18T06:56:46;-1.00;42.80
2973;DHT22;1496;51.404;7.232;2022-12-18T06:59:13;-1.20;99.90
2973;DHT22;1496;51.404;7.232;2022-12-18T07:01:39;-1.10;99.90
2973;DHT22;1496;51.404;7.232;2022-12-18T07:04:10;-1.10;41.70
2973;DHT22;1496;51.404;7.232;2022-12-18T07:06:36;-1.10;41.90
2973;DHT22;1496;51.404;7.232;2022-12-18T07:09:01;-1.00;41.10
2973;DHT22;1496;51.404;7.232;2022-12-18T07:11:27;-1.10;40.70
2973;DHT22;1496;51.404;7.232;2022-12-18T07:13:53;-1.10;40.40
2973;DHT22;1496;51.404;7.232;2022-12-18T07:16:20;-1.10;39.60
2973;DHT22;1496;51.404;7.232;2022-12-18T07:18:54;-1.10;39.50
2973;DHT22;1496;51.404;7.232;2022-12-18T07:21:20;-1.10;44.90
2973;DHT22;1496;51.404;7.232;2022-12-18T07:23:46;-1.10;39.30
2973;DHT22;1496;51.404;7.232;2022-12-18T07:26:14;-1.10;39.30
2973;DHT22;1496;51.404;7.232;2022-12-18T07:28:41;-1.10;39.00
2973;DHT22;1496;51.404;7.232;2022-12-18T07:31:09;-1.00;39.30
2973;DHT22;1496;51.404;7.232;2022-12-18T07:33:35;-1.00;38.30
2973;DHT22;1496;51.404;7.232;2022-12-18T07:36:05;-1.00;39.30
2973;DHT22;1496;51.404;7.232;2022-12-18T07:38:32;-0.90;38.30
2973;DHT22;1496;51.404;7.232;2022-12-18T07:41:06;-1.00;37.90
2973;DHT22;1496;51.404;7.232;2022-12-18T07:43:33;-1.00;37.70
2973;DHT22;1496;51.404;7.232;2022-12-18T07:45:59;-1.00;36.70
2973;DHT22;1496;51.404;7.232;2022-12-18T07:48:25;-1.00;47.70
2973;DHT22;1496;51.404;7.232;2022-12-18T07:50:50;-1.00;38.20
2973;DHT22;1496;51.404;7.232;2022-12-18T07:53:17;-1.00;36.60
2973;DHT22;1496;51.404;7.232;2022-12-18T07:55:42;-0.90;36.80
2973;DHT22;1496;51.404;7.232;2022-12-18T07:58:08;-0.80;36.10
2973;DHT22;1496;51.404;7.232;2022-12-18T08:00:34;-0.80;36.00
2973;DHT22;1496;51.404;7.232;2022-12-18T08:03:00;-0.70;35.80
2973;DHT22;1496;51.404;7.232;2022-12-18T08:05:26;-0.70;36.20
2973;DHT22;1496;51.404;7.232;2022-12-18T08:07:53;-0.60;37.00
2973;DHT22;1496;51.404;7.232;2022-12-18T08:10:19;-0.50;47.00
2973;DHT22;1496;51.404;7.232;2022-12-18T08:12:45;-0.40;36.80
2973;DHT22;1496;51.404;7.232;2022-12-18T08:15:11;-0.40;48.40
2973;DHT22;1496;51.404;7.232;2022-12-18T08:17:36;-0.30;40.10
2973;DHT22;1496;51.404;7.232;2022-12-18T08:20:05;-0.20;49.80
2973;DHT22;1496;51.404;7.232;2022-12-18T08:22:34;-0.10;60.10
2973;DHT22;1496;51.404;7.232;2022-12-18T08:25:03;-0.10;58.50
2973;DHT22;1496;51.404;7.232;2022-12-18T08:27:29;0.00;52.50
2973;DHT22;1496;51.404;7.232;2022-12-18T08:29:55;0.20;56.50
2973;DHT22;1496;51.404;7.232;2022-12-18T08:32:21;0.10;73.50
2973;DHT22;1496;51.404;7.232;2022-12-18T08:34:46;0.20;74.30
2973;DHT22;1496;51.404;7.232;2022-12-18T08:37:12;0.20;49.80
2973;DHT22;1496;51.404;7.232;2022-12-18T08:39:37;0.30;53.90
2973;DHT22;1496;51.404;7.232;2022-12-18T08:42:03;0.50;51.30
2973;DHT22;1496;51.404;7.232;2022-12-18T08:44:47;0.60;43.20
2973;DHT22;1496;51.404;7.232;2022-12-18T08:47:13;0.50;55.30
2973;DHT22;1496;51.404;7.232;2022-12-18T08:49:39;0.60;62.40
2973;DHT22;1496;51.404;7.232;2022-12-18T08:52:05;0.70;40.00
2973;DHT22;1496;51.404;7.232;2022-12-18T08:54:30;0.70;28.70
2973;DHT22;1496;51.404;7.232;2022-12-18T08:56:56;0.80;25.90
2973;DHT22;1496;51.404;7.232;2022-12-18T08:59:22;0.90;25.30
2973;DHT22;1496;51.404;7.232;2022-12-18T09:01:49;0.90;24.60
2973;DHT22;1496;51.404;7.232;2022-12-18T09:04:14;1.00;24.30
2973;DHT22;1496;51.404;7.232;2022-12-18T09:06:40;1.10;24.00
2973;DHT22;1496;51.404;7.232;2022-12-18T09:09:06;1.20;23.60
2973;DHT22;1496;51.404;7.232;2022-12-18T09:11:33;1.10;23.20
2973;DHT22;1496;51.404;7.232;2022-12-18T09:14:00;1.20;22.90
2973;DHT22;1496;51.404;7.232;2022-12-18T09:16:26;1.20;22.50
2973;DHT22;1496;51.404;7.232;2022-12-18T09:18:56;1.30;22.30
2973;DHT22;1496;51.404;7.232;2022-12-18T09:21:27;1.40;21.90
2973;DHT22;1496;51.404;7.232;2022-12-18T09:23:59;1.40;21.90
2973;DHT22;1496;51.404;7.232;2022-12-18T09:26:25;1.40;21.00
2973;DHT22;1496;51.404;7.232;2022-12-18T09:28:52;1.40;21.10
2973;DHT22;1496;51.404;7.232;2022-12-18T09:31:21;1.50;20.70
2973;DHT22;1496;51.404;7.232;2022-12-18T09:33:46;1.50;20.10
2973;DHT22;1496;51.404;7.232;2022-12-18T09:36:14;1.60;19.80
2973;DHT22;1496;51.404;7.232;2022-12-18T09:38:41;1.60;19.30
2973;DHT22;1496;51.404;7.232;2022-12-18T09:43:52;1.80;19.10
2973;DHT22;1496;51.404;7.232;2022-12-18T09:46:34;1.90;18.30
2973;DHT22;1496;51.404;7.232;2022-12-18T09:49:04;1.90;17.90
2973;DHT22;1496;51.404;7.232;2022-12-18T09:51:47;1.90;17.20
2973;DHT22;1496;51.404;7.232;2022-12-18T09:54:26;1.90;17.30
2973;DHT22;1496;51.404;7.232;2022-12-18T09:56:55;2.00;17.60
2973;DHT22;1496;51.404;7.232;2022-12-18T09:59:24;1.90;15.90
2973;DHT22;1496;51.404;7.232;2022-12-18T10:01:50;2.00;16.20
2973;DHT22;1496;51.404;7.232;2022-12-18T10:04:18;1.90;23.50
2973;DHT22;1496;51.404;7.232;2022-12-18T10:07:19;1.90;15.00
2973;DHT22;1496;51.404;7.232;2022-12-18T10:09:57;1.90;14.60
2973;DHT22;1496;51.404;7.232;2022-12-18T10:12:34;2.00;14.40
2973;DHT22;1496;51.404;7.232;2022-12-18T10:15:24;2.00;14.00
2973;DHT22;1496;51.404;7.232;2022-12-18T10:18:04;2.00;13.50
2973;DHT22;1496;51.404;7.232;2022-12-18T10:20:53;2.00;13.20
2973;DHT22;1496;51.404;7.232;2022-12-18T10:26:11;2.10;12.80
2973;DHT22;1496;51.404;7.232;2022-12-18T10:28:41;2.10;12.80
2973;DHT22;1496;51.404;7.232;2022-12-18T10:31:16;2.20;11.90
2973;DHT22;1496;51.404;7.232;2022-12-18T10:33:42;2.20;11.80
2973;DHT22;1496;51.404;7.232;2022-12-18T10:36:09;2.30;11.50
2973;DHT22;1496;51.404;7.232;2022-12-18T10:38:35;2.30;11.70
2973;DHT22;1496;51.404;7.232;2022-12-18T10:41:03;2.40;11.10
2973;DHT22;1496;51.404;7.232;2022-12-18T10:43:32;2.30;11.10
2973;DHT22;1496;51.404;7.232;2022-12-18T10:51:24;2.40;9.40
2973;DHT22;1496;51.404;7.232;2022-12-18T10:54:00;2.50;9.50
2973;DHT22;1496;51.404;7.232;2022-12-18T10:56:28;2.50;9.60
2973;DHT22;1496;51.404;7.232;2022-12-18T11:01:25;2.70;18.30
2973;DHT22;1496;51.404;7.232;2022-12-18T11:06:22;2.60;8.80
2973;DHT22;1496;51.404;7.232;2022-12-18T11:09:19;2.70;8.30
2973;DHT22;1496;51.404;7.232;2022-12-18T11:11:49;2.70;7.70
2973;DHT22;1496;51.404;7.232;2022-12-18T11:17:19;2.70;8.30
2973;DHT22;1496;51.404;7.232;2022-12-18T11:19:52;2.70;6.80
2973;DHT22;1496;51.404;7.232;2022-12-18T11:22:28;2.70;6.60
2973;DHT22;1496;51.404;7.232;2022-12-18T11:25:16;2.70;5.70
2973;DHT22;1496;51.404;7.232;2022-12-18T11:27:49;2.70;5.10
2973;DHT22;1496;51.404;7.232;2022-12-18T11:30:25;2.80;5.80
2973;DHT22;1496;51.404;7.232;2022-12-18T11:33:04;2.80;4.80
2973;DHT22;1496;51.404;7.232;2022-12-18T11:35:58;2.80;4.80
2973;DHT22;1496;51.404;7.232;2022-12-18T11:38:42;2.80;4.50
2973;DHT22;1496;51.404;7.232;2022-12-18T11:41:18;2.80;3.70
2973;DHT22;1496;51.404;7.232;2022-12-18T11:44:02;2.90;3.20
2973;DHT22;1496;51.404;7.232;2022-12-18T11:46:36;2.90;2.50
2973;DHT22;1496;51.404;7.232;2022-12-18T11:49:11;2.90;2.40
2973;DHT22;1496;51.404;7.232;2022-12-18T11:51:43;2.90;2.20
2973;DHT22;1496;51.404;7.232;2022-12-18T11:54:15;3.00;1.50
2973;DHT22;1496;51.404;7.232;2022-12-18T11:57:03;3.10;1.50
2973;DHT22;1496;51.404;7.232;2022-12-18T12:07:57;3.10;1.00
2973;DHT22;1496;51.404;7.232;2022-12-18T12:11:10;3.10;1.00
2973;DHT22;1496;51.404;7.232;2022-12-18T12:13:44;3.20;1.00
2973;DHT22;1496;51.404;7.232;2022-12-18T12:21:33;3.10;1.00
2973;DHT22;1496;51.404;7.232;2022-12-18T12:29:44;3.10;1.00
2973;DHT22;1496;51.404;7.232;2022-12-18T12:33:01;3.10;1.00
2973;DHT22;1496;51.404;7.232;2022-12-18T12:35:35;3.10;1.00
2973;DHT22;1496;51.404;7.232;2022-12-18T12:40:36;3.10;1.00
2973;DHT22;1496;51.404;7.232;2022-12-18T12:43:29;3.20;5.20
2973;DHT22;1496;51.404;7.232;2022-12-18T12:46:06;3.10;1.00
2973;DHT22;1496;51.404;7.232;2022-12-18T12:51:24;3.10;1.00
2973;DHT22;1496;51.404;7.232;2022-12-18T12:53:52;3.10;1.00
2973;DHT22;1496;51.404;7.232;2022-12-18T12:56:24;3.10;1.00
2973;DHT22;1496;51.404;7.232;2022-12-18T12:59:04;3.10;1.00
2973;DHT22;1496;51.404;7.232;2022-12-18T13:01:40;3.00;1.00
2973;DHT22;1496;51.404;7.232;2022-12-18T13:07:17;2.90;1.00
2973;DHT22;1496;51.404;7.232;2022-12-18T13:10:25;2.80;1.00
2973;DHT22;1496;51.404;7.232;2022-12-18T13:12:56;2.80;1.00
2973;DHT22;1496;51.404;7.232;2022-12-18T13:15:26;2.70;1.00
2973;DHT22;1496;51.404;7.232;2022-12-18T13:18:10;2.60;1.00
2973;DHT22;1496;51.404;7.232;2022-12-18T13:20:38;2.60;1.00
2973;DHT22;1496;51.404;7.232;2022-12-18T13:23:27;2.50;1.00
2973;DHT22;1496;51.404;7.232;2022-12-18T13:30:59;2.30;1.00
2973;DHT22;1496;51.404;7.232;2022-12-18T13:41:24;2.10;1.00
2973;DHT22;1496;51.404;7.232;2022-12-18T13:43:52;2.10;1.00
2973;DHT22;1496;51.404;7.232;2022-12-18T13:46:41;2.10;1.00
2973;DHT22;1496;51.404;7.232;2022-12-18T13:51:44;2.00;1.00
2973;DHT22;1496;51.404;7.232;2022-12-18T13:54:21;2.00;1.00
2973;DHT22;1496;51.404;7.232;2022-12-18T13:56:48;2.00;1.00
2973;DHT22;1496;51.404;7.232;2022-12-18T13:59:17;1.90;1.00
2973;DHT22;1496;51.404;7.232;2022-12-18T14:01:55;1.90;1.00
2973;DHT22;1496;51.404;7.232;2022-12-18T14:04:24;1.90;1.00
2973;DHT22;1496;51.404;7.232;2022-12-18T14:06:56;1.90;5.00
2973;DHT22;1496;51.404;7.232;2022-12-18T14:09:29;1.90;1.00
2973;DHT22;1496;51.404;7.232;2022-12-18T14:11:56;1.90;1.00
2973;DHT22;1496;51.404;7.232;2022-12-18T14:14:46;1.90;1.00
2973;DHT22;1496;51.404;7.232;2022-12-18T14:17:13;1.90;1.00
2973;DHT22;1496;51.404;7.232;2022-12-18T14:19:44;1.80;1.00
2973;DHT22;1496;51.404;7.232;2022-12-18T14:22:17;1.80;1.00
2973;DHT22;1496;51.404;7.232;2022-12-18T14:24:44;1.80;1.00
2973;DHT22;1496;51.404;7.232;2022-12-18T14:27:24;1.80;1.00
2973;DHT22;1496;51.404;7.232;2022-12-18T14:29:51;1.80;1.00
2973;DHT22;1496;51.404;7.232;2022-12-18T14:32:18;1.80;1.00
2973;DHT22;1496;51.404;7.232;2022-12-18T14:34:52;1.80;1.00
2973;DHT22;1496;51.404;7.232;2022-12-18T14:37:23;1.70;1.00
2973;DHT22;1496;51.404;7.232;2022-12-18T14:39:57;1.70;1.00
2973;DHT22;1496;51.404;7.232;2022-12-18T14:42:25;1.70;1.00
2973;DHT22;1496;51.404;7.232;2022-12-18T14:45:32;1.70;1.00
2973;DHT22;1496;51.404;7.232;2022-12-18T14:47:59;1.70;1.00
2973;DHT22;1496;51.404;7.232;2022-12-18T14:50:25;1.70;1.00
2973;DHT22;1496;51.404;7.232;2022-12-18T14:52:52;1.70;1.00
2973;DHT22;1496;51.404;7.232;2022-12-18T14:55:19;1.60;1.00
2973;DHT22;1496;51.404;7.232;2022-12-18T14:57:46;1.60;1.00
2973;DHT22;1496;51.404;7.232;2022-12-18T15:00:18;1.60;1.00
2973;DHT22;1496;51.404;7.232;2022-12-18T15:02:54;1.60;1.00
2973;DHT22;1496;51.404;7.232;2022-12-18T15:05:28;1.50;1.00
2973;DHT22;1496;51.404;7.232;2022-12-18T15:07:56;1.50;1.00
2973;DHT22;1496;51.404;7.232;2022-12-18T15:10:25;1.50;1.00
2973;DHT22;1496;51.404;7.232;2022-12-18T15:20:50;1.40;1.00
2973;DHT22;1496;51.404;7.232;2022-12-18T15:25:44;1.30;1.00
2973;DHT22;1496;51.404;7.232;2022-12-18T15:28:26;1.30;1.00
2973;DHT22;1496;51.404;7.232;2022-12-18T15:33:45;1.30;1.00
2973;DHT22;1496;51.404;7.232;2022-12-18T15:36:25;1.20;1.00
2973;DHT22;1496;51.404;7.232;2022-12-18T15:38:52;1.20;1.00
2973;DHT22;1496;51.404;7.232;2022-12-18T15:41:20;1.20;1.00
2973;DHT22;1496;51.404;7.232;2022-12-18T15:43:48;1.20;1.00
2973;DHT22;1496;51.404;7.232;2022-12-18T15:46:22;1.10;1.00
2973;DHT22;1496;51.404;7.232;2022-12-18T15:48:58;1.10;1.00
2973;DHT22;1496;51.404;7.232;2022-12-18T15:51:33;1.10;1.00
2973;DHT22;1496;51.404;7.232;2022-12-18T15:54:01;1.00;1.00
2973;DHT22;1496;51.404;7.232;2022-12-18T15:56:34;1.00;1.00
2973;DHT22;1496;51.404;7.232;2022-12-18T15:59:19;1.00;1.00
2973;DHT22;1496;51.404;7.232;2022-12-18T16:01:48;0.90;1.00
2973;DHT22;1496;51.404;7.232;2022-12-18T16:04:16;1.00;1.30
2973;DHT22;1496;51.404;7.232;2022-12-18T16:06:42;0.90;1.90
2973;DHT22;1496;51.404;7.232;2022-12-18T16:09:09;1.00;1.60
2973;DHT22;1496;51.404;7.232;2022-12-18T16:11:36;1.00;2.60
2973;DHT22;1496;51.404;7.232;2022-12-18T16:14:21;0.90;2.90
2973;DHT22;1496;51.404;7.232;2022-12-18T16:16:50;1.00;3.40
2973;DHT22;1496;51.404;7.232;2022-12-18T16:19:17;1.00;4.30
2973;DHT22;1496;51.404;7.232;2022-12-18T16:21:44;1.00;4.90
2973;DHT22;1496;51.404;7.232;2022-12-18T16:24:22;1.00;5.10
2973;DHT22;1496;51.404;7.232;2022-12-18T16:26:52;1.00;5.40
2973;DHT22;1496;51.404;7.232;2022-12-18T16:29:19;1.00;5.50
2973;DHT22;1496;51.404;7.232;2022-12-18T16:31:57;0.90;6.80
2973;DHT22;1496;51.404;7.232;2022-12-18T16:34:30;0.90;7.10
2973;DHT22;1496;51.404;7.232;2022-12-18T16:37:07;0.90;8.30
2973;DHT22;1496;51.404;7.232;2022-12-18T16:39:33;0.80;8.30
2973;DHT22;1496;51.404;7.232;2022-12-18T16:42:00;0.80;8.80
2973;DHT22;1496;51.404;7.232;2022-12-18T16:44:29;0.80;9.90
2973;DHT22;1496;51.404;7.232;2022-12-18T16:46:55;0.80;9.50
2973;DHT22;1496;51.404;7.232;2022-12-18T16:49:28;0.70;10.70
2973;DHT22;1496;51.404;7.232;2022-12-18T16:51:54;0.60;12.00
2973;DHT22;1496;51.404;7.232;2022-12-18T16:54:20;0.60;11.70
2973;DHT22;1496;51.404;7.232;2022-12-18T17:00:37;0.50;12.50
2973;DHT22;1496;51.404;7.232;2022-12-18T17:03:31;0.50;13.60
2973;DHT22;1496;51.404;7.232;2022-12-18T17:06:05;0.40;15.30
2973;DHT22;1496;51.404;7.232;2022-12-18T17:08:53;0.40;14.80
2973;DHT22;1496;51.404;7.232;2022-12-18T17:11:31;0.40;16.70
2973;DHT22;1496;51.404;7.232;2022-12-18T17:13:58;0.40;16.40
2973;DHT22;1496;51.404;7.232;2022-12-18T17:16:27;0.40;17.10
2973;DHT22;1496;51.404;7.232;2022-12-18T17:18:53;0.40;17.80
2973;DHT22;1496;51.404;7.232;2022-12-18T17:21:22;0.40;19.30
2973;DHT22;1496;51.404;7.232;2022-12-18T17:23:47;0.30;19.80
2973;DHT22;1496;51.404;7.232;2022-12-18T17:26:17;0.40;27.40
2973;DHT22;1496;51.404;7.232;2022-12-18T17:28:43;0.40;21.40
2973;DHT22;1496;51.404;7.232;2022-12-18T17:31:12;0.40;21.50
2973;DHT22;1496;51.404;7.232;2022-12-18T17:33:38;0.40;22.20
2973;DHT22;1496;51.404;7.232;2022-12-18T17:36:05;0.50;22.90
2973;DHT22;1496;51.404;7.232;2022-12-18T17:38:32;0.40;23.10
2973;DHT22;1496;51.404;7.232;2022-12-18T17:41:02;0.40;23.50
2973;DHT22;1496;51.404;7.232;2022-12-18T17:43:27;0.40;25.50
2973;DHT22;1496;51.404;7.232;2022-12-18T17:45:56;0.40;24.90
2973;DHT22;1496;51.404;7.232;2022-12-18T17:48:26;0.40;26.70
2973;DHT22;1496;51.404;7.232;2022-12-18T17:50:52;0.30;26.50
2973;DHT22;1496;51.404;7.232;2022-12-18T17:53:18;0.30;25.80
2973;DHT22;1496;51.404;7.232;2022-12-18T17:55:54;0.30;26.80
2973;DHT22;1496;51.404;7.232;2022-12-18T17:58:22;0.30;28.20
2973;DHT22;1496;51.404;7.232;2022-12-18T18:00:48;0.30;28.10
2973;DHT22;1496;51.404;7.232;2022-12-18T18:03:24;0.20;27.90
2973;DHT22;1496;51.404;7.232;2022-12-18T18:05:57;0.20;27.80
2973;DHT22;1496;51.404;7.232;2022-12-18T18:08:24;0.20;29.90
2973;DHT22;1496;51.404;7.232;2022-12-18T18:10:50;0.20;29.30
2973;DHT22;1496;51.404;7.232;2022-12-18T18:13:24;0.20;29.00